createdAt,value
2018-09-14T00:00:39.651Z,10.60
2018-09-14T00:03:10.400Z,9.73
2018-09-14T00:05:40.143Z,9.38
2018-09-14T00:08:10.169Z,9.13
2018-09-14T00:10:39.927Z,9.10
2018-09-14T00:13:09.544Z,9.37
2018-09-14T00:15:38.990Z,9.78
2018-09-14T00:18:08.324Z,9.48
2018-09-14T00:20:37.330Z,9.03
2018-09-14T00:23:06.351Z,8.80
2018-09-14T00:25:35.268Z,8.30
2018-09-14T00:28:04.703Z,9.30
2018-09-14T00:30:34.181Z,8.90
2018-09-14T00:33:03.479Z,7.93
2018-09-14T00:35:33.184Z,8.37
2018-09-14T00:38:02.692Z,8.77
2018-09-14T00:40:31.743Z,8.67
2018-09-14T00:43:00.717Z,9.28
2018-09-14T00:45:30.596Z,9.78
2018-09-14T00:47:59.636Z,9.50
2018-09-14T00:50:28.958Z,8.90
2018-09-14T00:52:57.878Z,7.80
2018-09-14T00:55:27.798Z,8.83
2018-09-14T00:57:57.407Z,8.00
2018-09-14T01:00:26.738Z,8.03
2018-09-14T01:02:56.313Z,8.20
2018-09-14T01:05:25.298Z,7.60
2018-09-14T01:07:54.914Z,7.00
2018-09-14T01:10:24.522Z,7.93
2018-09-14T01:12:53.824Z,6.97
2018-09-14T01:15:23.430Z,6.87
2018-09-14T01:17:52.730Z,6.83
2018-09-14T01:20:21.817Z,7.13
2018-09-14T01:22:51.087Z,7.63
2018-09-14T01:25:20.324Z,7.03
2018-09-14T01:27:49.897Z,6.60
2018-09-14T01:30:18.990Z,6.37
2018-09-14T01:32:48.226Z,6.13
2018-09-14T01:35:22.355Z,6.57
2018-09-14T01:37:52.355Z,7.07
2018-09-14T01:40:21.374Z,8.00
2018-09-14T01:42:50.509Z,7.73
2018-09-14T01:45:19.694Z,8.40
2018-09-14T01:47:48.658Z,7.90
2018-09-14T01:50:17.936Z,8.10
2018-09-14T01:52:47.099Z,7.53
2018-09-14T01:55:16.846Z,8.27
2018-09-14T01:57:45.881Z,7.90
2018-09-14T02:00:15.445Z,7.67
2018-09-14T02:02:44.495Z,7.27
2018-09-14T02:05:14.046Z,6.83
2018-09-14T02:07:43.654Z,7.47
2018-09-14T02:10:16.947Z,7.37
2018-09-14T02:12:46.050Z,7.83
2018-09-14T02:15:15.211Z,7.07
2018-09-14T02:17:44.849Z,7.07
2018-09-14T02:20:14.103Z,6.83
2018-09-14T02:22:43.757Z,7.40
2018-09-14T02:25:12.790Z,6.93
2018-09-14T02:27:42.666Z,7.53
2018-09-14T02:30:12.275Z,7.83
2018-09-14T02:32:41.573Z,10.13
2018-09-14T02:35:10.582Z,12.73
2018-09-14T02:37:39.939Z,11.47
2018-09-14T02:40:09.527Z,11.73
2018-09-14T02:42:38.642Z,9.73
2018-09-14T02:45:08.157Z,8.63
2018-09-14T02:47:37.121Z,8.83
2018-09-14T02:50:06.137Z,9.13
2018-09-14T02:52:35.976Z,11.00
2018-09-14T02:55:05.434Z,10.83
2018-09-14T02:57:34.932Z,10.83
2018-09-14T03:00:04.244Z,9.30
2018-09-14T03:02:33.199Z,8.67
2018-09-14T03:05:03.093Z,7.17
2018-09-14T03:07:32.700Z,8.07
2018-09-14T03:10:02.313Z,7.80
2018-09-14T03:12:31.779Z,7.57
2018-09-14T03:15:01.524Z,7.77
2018-09-14T03:17:30.578Z,7.50
2018-09-14T03:20:00.124Z,7.53
2018-09-14T03:22:29.590Z,7.47
2018-09-14T03:24:59.341Z,7.87
2018-09-14T03:27:28.442Z,8.60
2018-09-14T03:29:57.674Z,7.63
2018-09-14T03:32:26.951Z,7.43
2018-09-14T03:34:55.978Z,7.90
2018-09-14T03:37:25.227Z,7.43
2018-09-14T03:39:54.837Z,7.47
2018-09-14T03:42:24.058Z,7.70
2018-09-14T03:44:53.191Z,7.97
2018-09-14T03:47:22.141Z,8.10
2018-09-14T03:49:51.731Z,7.83
2018-09-14T03:52:21.644Z,9.03
2018-09-14T03:54:50.663Z,9.33
2018-09-14T03:57:20.301Z,10.00
2018-09-14T03:59:49.545Z,10.00
2018-09-14T04:02:18.551Z,9.33
2018-09-14T04:04:47.840Z,9.00
2018-09-14T04:07:17.447Z,9.40
2018-09-14T04:09:46.749Z,9.10
2018-09-14T04:12:15.798Z,9.50
2018-09-14T04:14:45.350Z,10.08
2018-09-14T04:17:15.264Z,9.27
2018-09-14T04:19:44.872Z,9.00
2018-09-14T04:22:13.932Z,9.07
2018-09-14T04:24:43.473Z,10.30
2018-09-14T04:27:12.487Z,10.50
2018-09-14T04:29:42.033Z,9.53
2018-09-14T04:32:11.391Z,9.90
2018-09-14T04:34:40.390Z,9.10
2018-09-14T04:37:09.974Z,10.17
2018-09-14T04:39:38.991Z,10.07
2018-09-14T04:42:07.983Z,10.77
2018-09-14T04:44:37.568Z,11.13
2018-09-14T04:47:06.870Z,10.87
2018-09-14T04:49:35.883Z,10.20
2018-09-14T04:52:05.235Z,10.27
2018-09-14T04:54:35.693Z,11.60
2018-09-14T04:57:05.305Z,11.00
2018-09-14T04:59:34.928Z,11.23
2018-09-14T05:02:04.309Z,11.50
2018-09-14T05:04:34.430Z,11.10
2018-09-14T05:07:03.971Z,10.50
2018-09-14T05:09:33.359Z,10.93
2018-09-14T05:12:02.667Z,10.77
2018-09-14T05:14:32.256Z,9.50
2018-09-14T05:17:01.583Z,10.30
2018-09-14T05:19:31.155Z,9.90
2018-09-14T05:22:00.528Z,10.37
2018-09-14T05:24:29.831Z,10.40
2018-09-14T05:26:59.363Z,11.13
2018-09-14T05:29:28.690Z,10.67
2018-09-14T05:31:57.999Z,10.60
2018-09-14T05:34:27.310Z,11.80
2018-09-14T05:36:56.871Z,12.40
2018-09-14T05:39:26.195Z,14.07
2018-09-14T05:41:55.803Z,15.70
2018-09-14T05:44:24.800Z,22.93
2018-09-14T05:46:54.119Z,19.73
2018-09-14T05:49:23.681Z,18.70
2018-09-14T05:51:53.020Z,22.27
2018-09-14T05:54:22.324Z,25.80
2018-09-14T05:56:51.619Z,27.97
2018-09-14T05:59:21.192Z,24.53
2018-09-14T06:01:50.854Z,20.33
2018-09-14T06:04:20.713Z,17.97
2018-09-14T06:06:50.149Z,16.50
2018-09-14T06:09:19.928Z,15.63
2018-09-14T06:11:49.228Z,15.57
2018-09-14T06:14:18.288Z,15.58
2018-09-14T06:16:47.686Z,13.78
2018-09-14T06:19:17.132Z,14.53
2018-09-14T06:21:46.430Z,14.10
2018-09-14T06:24:15.353Z,12.98
2018-09-14T06:26:44.706Z,12.43
2018-09-14T06:29:14.025Z,13.43
2018-09-14T06:31:43.295Z,11.75
2018-09-14T06:34:12.919Z,9.53
2018-09-14T06:36:42.234Z,9.03
2018-09-14T06:39:12.763Z,8.43
2018-09-14T06:41:41.819Z,8.40
2018-09-14T06:44:10.898Z,9.00
2018-09-14T06:46:40.663Z,7.85
2018-09-14T06:49:09.718Z,8.05
2018-09-14T06:51:39.962Z,8.55
2018-09-14T06:54:09.905Z,9.03
2018-09-14T06:56:39.427Z,8.33
2018-09-14T06:59:09.178Z,7.92
2018-09-14T07:01:38.923Z,8.15
2018-09-14T07:04:08.278Z,7.37
2018-09-14T07:06:38.337Z,8.00
2018-09-14T07:09:09.754Z,7.20
2018-09-14T07:11:39.068Z,7.83
2018-09-14T07:14:08.526Z,7.55
2018-09-14T07:16:37.869Z,6.95
2018-09-14T07:19:07.266Z,7.58
2018-09-14T07:21:36.698Z,8.05
2018-09-14T07:24:06.170Z,8.25
2018-09-14T07:26:35.648Z,7.42
2018-09-14T07:29:05.178Z,8.45
2018-09-14T07:31:34.882Z,7.87
2018-09-14T07:34:04.132Z,8.55
2018-09-14T07:36:33.487Z,8.28
2018-09-14T07:39:02.913Z,8.20
2018-09-14T07:41:32.030Z,8.03
2018-09-14T07:44:02.251Z,9.15
2018-09-14T07:46:32.167Z,8.40
2018-09-14T07:49:01.552Z,8.15
2018-09-14T07:51:30.720Z,10.30
2018-09-14T07:54:02.452Z,8.98
2018-09-14T07:56:31.945Z,8.10
2018-09-14T07:59:01.135Z,8.18
2018-09-14T08:01:30.458Z,7.47
2018-09-14T08:03:59.838Z,9.10
2018-09-14T08:06:29.210Z,8.63
2018-09-14T08:08:58.139Z,7.75
2018-09-14T08:11:27.121Z,7.70
2018-09-14T08:13:56.645Z,7.97
2018-09-14T08:16:25.638Z,6.87
2018-09-14T08:18:54.978Z,7.37
2018-09-14T08:21:24.089Z,8.28
2018-09-14T08:23:58.350Z,7.25
2018-09-14T08:26:28.978Z,6.87
2018-09-14T08:28:58.243Z,7.75
2018-09-14T08:31:37.216Z,6.12
2018-09-14T08:34:08.539Z,5.85
2018-09-14T08:36:38.354Z,6.00
2018-09-14T08:39:09.890Z,6.40
2018-09-14T08:41:40.754Z,6.28
2018-09-14T08:44:25.846Z,5.60
2018-09-14T08:47:01.455Z,7.50
2018-09-14T08:49:31.127Z,6.53
2018-09-14T08:52:01.244Z,6.95
2018-09-14T08:54:31.872Z,7.70
2018-09-14T08:57:01.734Z,7.62
2018-09-14T08:59:41.272Z,8.23
2018-09-14T09:02:10.957Z,6.85
2018-09-14T09:04:40.559Z,7.17
2018-09-14T09:07:21.384Z,7.28
2018-09-14T09:09:59.374Z,7.28
2018-09-14T09:12:32.663Z,7.20
2018-09-14T09:15:02.473Z,7.12
2018-09-14T09:17:33.293Z,7.25
2018-09-14T09:20:08.907Z,7.15
2018-09-14T09:22:39.003Z,8.15
2018-09-14T09:25:08.543Z,7.35
2018-09-14T09:27:38.071Z,7.97
2018-09-14T09:30:08.331Z,7.17
2018-09-14T09:32:43.369Z,7.35
2018-09-14T09:35:16.257Z,7.83
2018-09-14T09:37:45.884Z,8.03
2018-09-14T09:40:20.189Z,8.30
2018-09-14T09:42:53.231Z,8.03
2018-09-14T09:45:25.208Z,7.75
2018-09-14T09:47:54.739Z,9.68
2018-09-14T09:50:28.068Z,8.98
2018-09-14T09:52:57.695Z,8.55
2018-09-14T09:55:33.216Z,8.18
2018-09-14T09:58:07.655Z,7.00
2018-09-14T10:00:43.332Z,7.45
2018-09-14T10:03:18.764Z,8.30
2018-09-14T10:05:53.526Z,7.45
2018-09-14T10:08:23.129Z,8.00
2018-09-14T10:10:56.274Z,7.60
2018-09-14T10:13:32.916Z,8.53
2018-09-14T10:16:02.477Z,7.62
2018-09-14T10:18:32.626Z,6.83
2018-09-14T10:21:05.264Z,6.97
2018-09-14T10:23:37.523Z,7.22
2018-09-14T10:26:07.632Z,7.03
2018-09-14T10:28:37.420Z,7.03
2018-09-14T10:31:09.932Z,6.90
2018-09-14T10:33:39.716Z,6.78
2018-09-14T10:36:13.277Z,7.05
2018-09-14T10:38:49.963Z,6.55
2018-09-14T10:41:19.576Z,7.83
2018-09-14T10:43:52.555Z,6.80
2018-09-14T10:46:26.187Z,7.03
2018-09-14T10:48:55.772Z,6.87
2018-09-14T10:51:25.428Z,6.70
2018-09-14T10:53:55.035Z,7.15
2018-09-14T10:56:24.583Z,7.28
2018-09-14T10:58:54.147Z,7.35
2018-09-14T11:01:25.255Z,7.30
2018-09-14T11:03:54.880Z,7.08
2018-09-14T11:06:29.612Z,7.28
2018-09-14T11:08:58.630Z,7.30
2018-09-14T11:11:27.626Z,7.45
2018-09-14T11:13:56.943Z,7.35
2018-09-14T11:16:25.918Z,6.75
2018-09-14T11:18:54.951Z,7.25
2018-09-14T11:21:24.031Z,6.47
2018-09-14T11:23:53.082Z,6.37
2018-09-14T11:26:22.204Z,7.00
2018-09-14T11:28:51.221Z,6.85
2018-09-14T11:31:25.186Z,7.10
2018-09-14T11:33:54.175Z,6.90
2018-09-14T11:36:23.409Z,6.53
2018-09-14T11:38:52.476Z,6.35
2018-09-14T11:41:24.468Z,6.65
2018-09-14T11:43:54.078Z,6.65
2018-09-14T11:46:23.376Z,6.20
2018-09-14T11:48:52.665Z,6.40
2018-09-14T11:51:21.615Z,6.03
2018-09-14T11:53:50.653Z,5.95
2018-09-14T11:56:19.671Z,5.97
2018-09-14T11:58:48.619Z,5.50
2018-09-14T12:01:18.491Z,6.17
2018-09-14T12:03:48.322Z,6.20
2018-09-14T12:06:17.782Z,6.03
2018-09-14T12:08:48.652Z,6.03
2018-09-14T12:13:29.654Z,5.90
2018-09-14T12:15:59.007Z,5.47
2018-09-14T12:18:27.934Z,5.20
2018-09-14T13:07:21.269Z,5.45
2018-09-14T13:09:51.914Z,5.92
2018-09-14T13:12:22.359Z,7.10
2018-09-14T13:14:53.367Z,7.75
2018-09-14T13:17:23.576Z,8.05
2018-09-14T13:19:53.770Z,7.83
2018-09-14T13:22:23.635Z,7.87
2018-09-14T13:24:54.102Z,8.03
2018-09-14T13:27:24.747Z,7.58
2018-09-14T13:29:54.591Z,7.78
2018-09-14T13:32:27.508Z,8.60
2018-09-14T13:34:58.139Z,8.98
2018-09-14T13:37:28.338Z,7.85
2018-09-14T13:39:59.149Z,8.55
2018-09-14T13:42:30.279Z,9.00
2018-09-14T13:45:01.089Z,7.65
2018-09-14T13:47:32.066Z,7.67
2018-09-14T13:50:02.992Z,6.62
2018-09-14T13:52:33.466Z,7.42
2018-09-14T13:55:03.992Z,7.37
2018-09-14T13:57:34.938Z,8.08
2018-09-14T14:00:05.561Z,7.28
2018-09-14T14:02:35.536Z,7.28
2018-09-14T14:05:05.515Z,6.45
2018-09-14T14:07:35.670Z,7.33
2018-09-14T14:10:05.956Z,7.03
2018-09-14T14:12:36.350Z,7.35
2018-09-14T14:18:13.381Z,7.47
2018-09-14T14:20:45.617Z,7.35
2018-09-14T14:23:15.679Z,8.63
2018-09-14T14:25:49.251Z,6.75
2018-09-14T14:31:02.971Z,7.80
2018-09-14T14:33:34.413Z,8.38
2018-09-14T14:36:13.769Z,7.97
2018-09-14T14:38:44.381Z,6.75
2018-09-14T14:41:13.945Z,6.53
2018-09-14T14:43:44.149Z,7.50
2018-09-14T14:46:14.483Z,7.60
2018-09-14T14:48:44.764Z,6.53
2018-09-14T14:51:15.463Z,6.55
2018-09-14T14:53:45.522Z,7.08
2018-09-14T14:56:16.133Z,7.00
2018-09-14T14:58:46.399Z,6.70
2018-09-14T15:01:16.281Z,7.08
2018-09-14T15:03:45.975Z,6.58
2018-09-14T15:06:15.831Z,5.90
2018-09-14T15:08:46.051Z,6.10
2018-09-14T15:11:15.639Z,5.97
2018-09-14T15:13:46.674Z,5.85
2018-09-14T15:16:17.407Z,6.15
2018-09-14T15:18:47.731Z,5.45
2018-09-14T15:21:18.463Z,5.25
2018-09-14T15:23:48.480Z,5.73
2018-09-14T15:26:18.703Z,5.03
2018-09-14T15:28:48.423Z,5.25
2018-09-14T15:31:18.333Z,5.15
2018-09-14T15:33:48.291Z,4.92
2018-09-14T15:36:18.675Z,4.87
2018-09-14T15:38:49.414Z,4.85
2018-09-14T15:41:19.728Z,4.80
2018-09-14T15:43:50.263Z,4.03
2018-09-14T15:46:20.635Z,4.78
2018-09-14T15:48:51.316Z,4.05
2018-09-14T15:51:21.075Z,4.62
2018-09-14T15:53:52.579Z,4.00
2018-09-14T15:56:23.418Z,3.77
2018-09-14T15:58:53.065Z,3.50
2018-09-14T16:01:23.776Z,3.45
2018-09-14T16:03:53.834Z,3.15
2018-09-14T16:06:24.222Z,3.12
2018-09-14T16:08:54.831Z,4.00
2018-09-14T16:11:24.708Z,3.60
2018-09-14T16:13:55.003Z,3.70
2018-09-14T16:16:26.156Z,3.72
2018-09-14T16:18:56.735Z,3.75
2018-09-14T16:21:26.868Z,3.67
2018-09-14T16:23:58.041Z,3.50
2018-09-14T16:26:28.626Z,4.08
2018-09-14T16:28:58.503Z,3.80
2018-09-14T16:31:36.374Z,3.20
2018-09-14T16:34:15.570Z,3.92
2018-09-14T16:36:47.833Z,4.47
2018-09-14T16:39:27.438Z,3.50
2018-09-14T16:42:03.423Z,4.62
2018-09-14T16:44:42.901Z,3.67
2018-09-14T16:47:20.908Z,4.25
2018-09-14T16:50:07.896Z,3.75
2018-09-14T16:52:37.451Z,3.62
2018-09-14T16:55:07.275Z,3.45
2018-09-14T16:57:37.440Z,3.42
2018-09-14T17:00:08.267Z,3.58
2018-09-14T17:02:39.023Z,3.60
2018-09-14T17:05:09.183Z,3.75
2018-09-14T17:07:39.775Z,3.90
2018-09-14T17:10:11.572Z,4.40
2018-09-14T17:12:41.829Z,4.37
2018-09-14T17:15:12.180Z,4.70
2018-09-14T17:17:41.751Z,4.30
2018-09-14T17:20:11.499Z,4.20
2018-09-14T17:22:42.027Z,5.05
2018-09-14T17:25:12.849Z,5.45
2018-09-14T17:27:43.007Z,5.05
2018-09-14T17:30:13.461Z,5.12
2018-09-14T17:32:43.065Z,4.35
2018-09-14T17:35:13.309Z,4.67
2018-09-14T17:37:43.259Z,4.85
2018-09-14T17:40:13.112Z,5.37
2018-09-14T17:42:42.717Z,5.15
2018-09-14T17:45:12.348Z,5.17
2018-09-14T17:47:42.927Z,4.85
2018-09-14T17:50:12.840Z,6.87
2018-09-14T17:52:43.364Z,6.47
2018-09-14T17:55:13.759Z,5.53
2018-09-14T17:57:44.667Z,6.20
2018-09-14T18:00:15.357Z,5.80
2018-09-14T18:02:45.899Z,4.87
2018-09-14T18:05:15.678Z,5.03
2018-09-14T18:07:46.831Z,4.60
2018-09-14T18:10:17.039Z,4.67
2018-09-14T18:12:46.680Z,5.70
2018-09-14T18:15:16.870Z,5.10
2018-09-14T18:17:47.122Z,5.08
2018-09-14T18:20:17.089Z,4.83
2018-09-14T18:22:46.895Z,5.40
2018-09-14T18:25:17.275Z,5.70
2018-09-14T18:27:48.424Z,6.00
2018-09-14T18:30:18.284Z,5.17
2018-09-14T18:32:48.528Z,5.70
2018-09-14T18:35:18.362Z,5.65
2018-09-14T18:37:48.947Z,6.90
2018-09-14T18:40:19.428Z,6.25
2018-09-14T18:42:50.002Z,5.87
2018-09-14T18:45:20.483Z,5.33
2018-09-14T18:47:51.468Z,6.85
2018-09-14T18:50:22.518Z,6.53
2018-09-14T18:52:52.959Z,5.70
2018-09-14T18:55:22.819Z,5.17
2018-09-14T18:57:52.769Z,4.92
2018-09-14T19:00:22.799Z,5.67
2018-09-14T19:02:53.682Z,5.97
2018-09-14T19:05:23.810Z,5.87
2018-09-14T19:07:54.279Z,6.47
2018-09-14T19:10:25.437Z,5.90
2018-09-14T19:13:10.059Z,6.83
2018-09-14T19:15:39.738Z,5.92
2018-09-14T19:18:10.046Z,6.47
2018-09-14T19:20:40.429Z,7.27
2018-09-14T19:23:11.084Z,6.83
2018-09-14T19:25:42.893Z,6.50
2018-09-14T19:28:24.863Z,6.10
2018-09-14T19:31:07.253Z,6.60
2018-09-14T19:33:40.602Z,7.15
2018-09-14T19:36:12.444Z,6.10
2018-09-14T19:38:44.487Z,7.42
2018-09-14T19:41:15.808Z,7.40
2018-09-14T19:43:46.584Z,7.33
2018-09-14T19:46:16.979Z,8.43
2018-09-14T19:48:47.609Z,9.28
2018-09-14T19:51:18.351Z,10.38
2018-09-14T19:53:48.564Z,7.85
2018-09-14T19:56:19.222Z,8.80
2018-09-14T19:58:50.358Z,7.33
2018-09-14T20:01:21.262Z,8.20
2018-09-14T20:03:51.568Z,7.67
2018-09-14T20:06:26.081Z,7.30
2018-09-14T20:08:56.720Z,7.28
2018-09-14T20:11:26.788Z,7.33
2018-09-14T20:13:58.640Z,7.55
2018-09-14T20:16:29.965Z,6.95
2018-09-14T20:19:00.863Z,6.87
2018-09-14T20:21:31.592Z,6.83
2018-09-14T20:24:01.307Z,7.05
2018-09-14T20:26:37.257Z,7.12
2018-09-14T20:29:07.168Z,7.12
2018-09-14T20:31:39.683Z,7.33
2018-09-14T20:34:10.336Z,8.48
2018-09-14T20:36:48.001Z,8.73
2018-09-14T20:39:31.766Z,8.80
2018-09-14T20:42:05.843Z,8.40
2018-09-14T20:44:37.668Z,8.93
2018-09-14T20:47:08.323Z,8.68
2018-09-14T20:49:39.364Z,9.80
2018-09-14T20:52:09.532Z,8.40
2018-09-14T20:54:39.435Z,8.10
2018-09-14T20:57:16.684Z,8.00
2018-09-14T20:59:47.320Z,6.85
2018-09-14T21:02:18.128Z,6.25
2018-09-14T21:04:49.183Z,7.13
2018-09-14T21:07:25.940Z,6.60
2018-09-14T21:09:55.784Z,7.23
2018-09-14T21:12:25.768Z,7.45
2018-09-14T21:14:57.870Z,7.30
2018-09-14T21:17:28.425Z,6.97
2018-09-14T21:20:09.219Z,7.45
2018-09-14T21:22:43.929Z,7.05
2018-09-14T21:25:18.631Z,6.08
2018-09-14T21:27:48.599Z,7.30
2018-09-14T21:30:26.119Z,7.58
2018-09-14T21:32:59.670Z,7.95
2018-09-14T21:35:32.239Z,6.47
2018-09-14T21:38:06.960Z,6.80
2018-09-14T21:40:40.265Z,6.75
2018-09-14T21:43:16.388Z,6.75
2018-09-14T21:45:45.913Z,6.30
2018-09-14T21:48:15.883Z,6.20
2018-09-14T21:50:45.944Z,6.60
2018-09-14T21:53:16.154Z,6.17
2018-09-14T21:55:45.943Z,6.20
2018-09-14T21:58:16.551Z,6.20
2018-09-14T22:00:51.951Z,5.87
2018-09-14T22:03:22.880Z,6.45
2018-09-14T22:05:53.572Z,6.80
2018-09-14T22:08:23.454Z,7.05
2018-09-14T22:10:53.711Z,6.83
2018-09-14T22:13:24.016Z,7.17
2018-09-14T22:15:53.841Z,6.67
2018-09-14T22:18:23.730Z,7.40
2018-09-14T22:20:53.402Z,7.07
2018-09-14T22:23:22.976Z,6.22
2018-09-14T22:25:52.543Z,6.80
2018-09-14T22:28:22.480Z,6.60
2018-09-14T22:30:53.034Z,7.53
2018-09-14T22:33:22.633Z,8.63
2018-09-14T22:35:55.659Z,9.48
2018-09-14T22:38:25.959Z,9.23
2018-09-14T22:40:56.819Z,8.80
2018-09-14T22:43:26.728Z,8.87
2018-09-14T22:45:57.317Z,8.43
2018-09-14T22:48:27.295Z,9.28
2018-09-14T22:50:57.930Z,8.60
2018-09-14T22:53:27.787Z,8.60
2018-09-14T22:55:57.354Z,8.40
2018-09-14T22:58:28.085Z,8.33
2018-09-14T23:01:03.150Z,9.17
2018-09-14T23:03:33.219Z,9.07
2018-09-14T23:06:03.491Z,8.63
2018-09-14T23:08:33.398Z,8.83
2018-09-14T23:11:03.615Z,9.00
2018-09-14T23:13:33.487Z,10.68
2018-09-14T23:16:03.562Z,9.90
2018-09-14T23:18:34.039Z,9.97
2018-09-14T23:21:03.875Z,9.93
2018-09-14T23:23:33.827Z,10.10
2018-09-14T23:26:06.547Z,9.50
2018-09-14T23:28:36.874Z,9.63
2018-09-14T23:31:06.639Z,10.37
2018-09-14T23:33:37.519Z,9.57
2018-09-14T23:36:07.148Z,9.53
2018-09-14T23:38:36.947Z,8.77
2018-09-14T23:41:06.918Z,9.43
2018-09-14T23:43:38.199Z,8.83
2018-09-14T23:46:07.935Z,8.70
2018-09-14T23:48:37.975Z,8.20
2018-09-14T23:51:07.826Z,7.93
2018-09-14T23:53:37.367Z,8.23
2018-09-14T23:56:07.679Z,7.90
2018-09-14T23:58:38.207Z,7.60
